createdAt,value
2018-06-22T04:09:58.476Z,1014.27
2018-06-22T04:10:23.975Z,1014.33
2018-06-22T04:10:49.466Z,1014.27
2018-06-22T04:11:14.937Z,1014.35
2018-06-22T04:11:40.416Z,1014.32
2018-06-22T04:12:05.882Z,1014.35
2018-06-22T04:12:31.391Z,1014.34
2018-06-22T04:12:56.878Z,1014.33
2018-06-22T04:13:22.395Z,1014.29
2018-06-22T04:13:47.882Z,1014.32
2018-06-22T04:14:13.339Z,1014.32
2018-06-22T04:14:38.843Z,1014.34
2018-06-22T04:15:04.334Z,1014.29
2018-06-22T04:15:29.822Z,1014.28
2018-06-22T04:15:55.339Z,1014.3
2018-06-22T04:16:20.848Z,1014.32
2018-06-22T04:16:46.363Z,1014.33
2018-06-22T04:17:11.882Z,1014.22
2018-06-22T04:17:37.369Z,1014.29
2018-06-22T04:18:02.865Z,1014.3
2018-06-22T04:18:28.359Z,1014.23
2018-06-22T04:18:53.857Z,1014.23
2018-06-22T04:19:19.339Z,1014.25
2018-06-22T04:19:44.856Z,1014.29
2018-06-22T04:20:10.314Z,1014.3
2018-06-22T04:20:35.794Z,1014.27
2018-06-22T04:21:01.293Z,1014.26
2018-06-22T04:22:20.222Z,1014.27
2018-06-22T04:22:45.726Z,1014.28
2018-06-22T04:23:11.213Z,1014.34
2018-06-22T04:23:36.715Z,1014.33
2018-06-22T04:24:02.231Z,1014.36
2018-06-22T04:24:27.765Z,1014.4
2018-06-22T04:24:53.230Z,1014.4
2018-06-22T04:25:18.774Z,1014.42
2018-06-22T04:25:44.278Z,1014.37
2018-06-22T04:26:09.801Z,1014.45
2018-06-22T04:26:35.302Z,1014.45
2018-06-22T04:27:00.806Z,1014.45
2018-06-22T04:27:26.285Z,1014.43
2018-06-22T04:27:51.814Z,1014.47
2018-06-22T04:28:17.299Z,1014.44
2018-06-22T04:28:42.797Z,1014.41
2018-06-22T04:29:08.314Z,1014.42
2018-06-22T04:29:33.804Z,1014.38
2018-06-22T04:29:59.297Z,1014.44
2018-06-22T04:30:24.790Z,1014.49
2018-06-22T04:30:50.266Z,1014.49
2018-06-22T04:31:15.780Z,1014.43
2018-06-22T04:31:41.299Z,1014.43
2018-06-22T04:32:06.782Z,1014.44
2018-06-22T04:33:15.517Z,1014.48
2018-06-22T04:33:41.016Z,1014.47
2018-06-22T04:34:06.573Z,1014.55
2018-06-22T04:34:32.012Z,1014.42
2018-06-22T04:34:57.506Z,1014.48
2018-06-22T04:35:23.044Z,1014.5
2018-06-22T04:35:48.523Z,1014.55
2018-06-22T04:36:14.005Z,1014.49
2018-06-22T04:36:39.501Z,1014.51
2018-06-22T04:37:53.269Z,1014.52
2018-06-22T04:38:18.759Z,1014.51
2018-06-22T04:38:44.270Z,1014.54
2018-06-22T04:39:09.764Z,1014.53
2018-06-22T04:39:35.277Z,1014.59
2018-06-22T04:40:00.776Z,1014.62
2018-06-22T04:40:26.268Z,1014.54
2018-06-22T04:40:51.772Z,1014.54
2018-06-22T04:41:17.260Z,1014.58
2018-06-22T04:41:42.759Z,1014.68
2018-06-22T04:42:08.312Z,1014.66
2018-06-22T04:42:33.754Z,1014.66
2018-06-22T04:42:59.256Z,1014.68
2018-06-22T04:43:24.760Z,1014.7
2018-06-22T04:43:50.239Z,1014.67
2018-06-22T04:44:15.704Z,1014.73
2018-06-22T04:44:41.218Z,1014.68
2018-06-22T04:45:06.722Z,1014.68
2018-06-22T04:45:32.207Z,1014.64
2018-06-22T04:45:57.688Z,1014.71
2018-06-22T04:46:23.205Z,1014.69
2018-06-22T04:46:48.671Z,1014.7
2018-06-22T04:47:14.268Z,1014.71
2018-06-22T04:47:39.720Z,1014.68
2018-06-22T04:48:05.152Z,1014.7
2018-06-22T04:48:30.664Z,1014.68
2018-06-22T04:48:56.146Z,1014.7
2018-06-22T04:49:21.640Z,1014.68
2018-06-22T04:49:47.133Z,1014.67
2018-06-22T04:50:12.641Z,1014.69
2018-06-22T04:50:38.164Z,1014.77
2018-06-22T04:51:03.629Z,1014.71
2018-06-22T04:51:29.117Z,1014.84
2018-06-22T04:51:54.602Z,1014.83
2018-06-22T04:52:20.160Z,1014.79
2018-06-22T04:52:45.606Z,1014.79
2018-06-22T04:53:11.137Z,1014.85
2018-06-22T04:53:36.644Z,1014.79
2018-06-22T04:54:02.173Z,1014.79
2018-06-22T04:54:27.653Z,1014.79
2018-06-22T04:54:53.149Z,1014.8
2018-06-22T04:55:18.637Z,1014.77
2018-06-22T04:55:44.147Z,1014.74
2018-06-22T04:56:09.635Z,1014.78
2018-06-22T04:56:35.100Z,1014.74
2018-06-22T04:57:00.624Z,1014.7
2018-06-22T04:57:26.143Z,1014.78
2018-06-22T04:57:51.634Z,1014.73
2018-06-22T04:58:17.127Z,1014.74
2018-06-22T04:58:42.643Z,1014.73
2018-06-22T04:59:08.164Z,1014.77
2018-06-22T04:59:33.643Z,1014.68
2018-06-22T04:59:59.112Z,1014.76
2018-06-22T05:00:24.600Z,1014.74
2018-06-22T05:00:50.092Z,1014.76
2018-06-22T05:01:15.586Z,1014.75
2018-06-22T05:01:41.101Z,1014.81
2018-06-22T05:02:06.587Z,1014.84
2018-06-22T05:02:32.076Z,1014.85
2018-06-22T05:02:57.570Z,1014.89
2018-06-22T05:03:23.064Z,1014.89
2018-06-22T05:03:48.541Z,1014.82
2018-06-22T05:04:14.049Z,1014.87
2018-06-22T05:04:39.568Z,1014.85
2018-06-22T05:05:05.104Z,1014.85
2018-06-22T05:05:30.592Z,1014.83
2018-06-22T05:05:56.080Z,1014.91
2018-06-22T05:06:21.559Z,1014.86
2018-06-22T05:06:47.071Z,1014.84
2018-06-22T05:07:12.546Z,1014.86
2018-06-22T05:08:21.289Z,1014.79
2018-06-22T05:08:46.789Z,1014.82
2018-06-22T05:09:12.370Z,1014.84
2018-06-22T05:09:37.806Z,1014.79
2018-06-22T05:10:03.299Z,1014.84
2018-06-22T05:10:28.806Z,1014.82
2018-06-22T05:10:54.273Z,1014.85
2018-06-22T05:11:19.762Z,1014.85
2018-06-22T05:11:45.235Z,1014.88
2018-06-22T05:12:10.720Z,1014.89
2018-06-22T05:12:36.208Z,1014.86
2018-06-22T05:13:01.684Z,1014.87
2018-06-22T05:13:27.174Z,1014.91
2018-06-22T05:13:52.663Z,1014.86
2018-06-22T05:14:18.166Z,1014.95
2018-06-22T05:14:43.678Z,1014.96
2018-06-22T05:15:09.157Z,1014.96
2018-06-22T05:15:34.661Z,1014.91
2018-06-22T05:16:00.181Z,1014.93
2018-06-22T05:16:25.652Z,1014.93
2018-06-22T05:16:51.132Z,1014.92
2018-06-22T05:17:16.638Z,1014.89
2018-06-22T05:17:42.137Z,1014.9
2018-06-22T05:18:07.602Z,1014.87
2018-06-22T05:18:33.097Z,1014.87
2018-06-22T05:18:58.612Z,1014.89
2018-06-22T05:19:24.107Z,1014.97
2018-06-22T05:19:49.593Z,1014.94
2018-06-22T05:20:15.076Z,1014.93
2018-06-22T05:20:40.583Z,1014.94
2018-06-22T05:21:06.064Z,1014.83
2018-06-22T05:21:31.575Z,1014.95
2018-06-22T05:21:57.068Z,1014.94
2018-06-22T05:22:22.581Z,1014.92
2018-06-22T05:22:48.072Z,1014.87
2018-06-22T05:23:13.564Z,1014.97
2018-06-22T05:23:39.048Z,1014.92
2018-06-22T05:24:04.530Z,1014.93
2018-06-22T05:24:30.056Z,1014.92
2018-06-22T05:24:55.659Z,1014.91
2018-06-22T05:25:21.059Z,1014.96
2018-06-22T05:25:46.563Z,1014.99
2018-06-22T05:26:12.054Z,1014.94
2018-06-22T05:26:37.524Z,1014.98
2018-06-22T05:27:41.159Z,1015.02
2018-06-22T05:28:06.679Z,1015
2018-06-22T05:28:32.186Z,1015.04
2018-06-22T05:28:57.684Z,1015
2018-06-22T05:29:23.194Z,1015.04
2018-06-22T05:29:48.690Z,1015.07
2018-06-22T05:30:14.234Z,1015.03
2018-06-22T05:30:39.723Z,1015.11
2018-06-22T05:31:05.241Z,1015.1
2018-06-22T05:31:30.738Z,1015.1
2018-06-22T05:31:56.244Z,1015.09
2018-06-22T05:32:21.729Z,1015.06
2018-06-22T05:32:47.265Z,1015.03
2018-06-22T05:33:12.741Z,1015.04
2018-06-22T05:33:38.255Z,1015.03
2018-06-22T05:34:03.741Z,1015.03
2018-06-22T05:34:29.251Z,1015.05
2018-06-22T05:34:54.764Z,1015.1
2018-06-22T05:35:20.238Z,1015.08
2018-06-22T05:35:45.775Z,1015.11
2018-06-22T05:36:11.227Z,1015.01
2018-06-22T05:36:36.714Z,1015.02
2018-06-22T05:37:02.217Z,1015.05
2018-06-22T05:37:27.700Z,1015.09
2018-06-22T05:37:53.203Z,1015.04
2018-06-22T05:38:18.698Z,1015.05
2018-06-22T05:38:44.191Z,1015.12
2018-06-22T05:39:09.707Z,1015.08
2018-06-22T05:39:35.179Z,1015.08
2018-06-22T05:40:00.698Z,1015.07
2018-06-22T05:40:26.174Z,1015.11
2018-06-22T05:40:51.662Z,1015.04
2018-06-22T05:41:17.150Z,1015.07
2018-06-22T05:41:42.638Z,1015.05
2018-06-22T05:42:08.183Z,1015.01
2018-06-22T05:42:33.671Z,1015.03
2018-06-22T05:42:59.169Z,1015.06
2018-06-22T05:43:24.670Z,1015.08
2018-06-22T05:43:50.189Z,1015.04
2018-06-22T05:44:15.659Z,1015.04
2018-06-22T05:44:41.168Z,1015.01
2018-06-22T05:45:06.648Z,1015.1
2018-06-22T05:45:32.134Z,1015.13
2018-06-22T05:45:57.639Z,1015.06
2018-06-22T05:46:23.132Z,1015.08
2018-06-22T05:46:48.579Z,1015.11
2018-06-22T05:47:14.097Z,1015.09
2018-06-22T05:47:39.584Z,1015.15
2018-06-22T05:48:05.084Z,1015.11
2018-06-22T05:48:30.555Z,1015.13
2018-06-22T05:48:56.023Z,1015.15
2018-06-22T05:49:21.513Z,1015.2
2018-06-22T05:49:47.003Z,1015.13
2018-06-22T05:50:12.478Z,1015.14
2018-06-22T05:50:38.002Z,1015.07
2018-06-22T05:51:03.547Z,1015.16
2018-06-22T05:51:28.955Z,1015.19
2018-06-22T05:51:54.461Z,1015.14
2018-06-22T05:52:19.933Z,1015.11
2018-06-22T05:52:45.411Z,1015.18
2018-06-22T05:53:10.954Z,1015.18
2018-06-22T05:53:36.390Z,1015.17
2018-06-22T05:54:01.930Z,1015.16
2018-06-22T05:54:27.416Z,1015.13
2018-06-22T05:54:52.904Z,1015.16
2018-06-22T05:55:18.368Z,1015.11
2018-06-22T05:55:43.881Z,1015.17
2018-06-22T05:56:09.445Z,1015.15
2018-06-22T05:56:35.012Z,1015.18
2018-06-22T05:57:00.478Z,1015.18
2018-06-22T05:57:25.962Z,1015.16
2018-06-22T05:57:51.466Z,1015.17
2018-06-22T05:58:16.978Z,1015.2
2018-06-22T05:58:42.492Z,1015.17
2018-06-22T05:59:08.052Z,1015.2
2018-06-22T05:59:33.520Z,1015.16
2018-06-22T05:59:58.970Z,1015.24
2018-06-22T06:00:24.462Z,1015.22
2018-06-22T06:00:49.979Z,1015.2
2018-06-22T06:01:15.485Z,1015.17
2018-06-22T06:01:41.023Z,1015.17
2018-06-22T06:02:06.520Z,1015.13
2018-06-22T06:02:32.024Z,1015.2
2018-06-22T06:02:57.574Z,1015.16
2018-06-22T06:03:23.056Z,1015.16
2018-06-22T06:03:48.580Z,1015.24
2018-06-22T06:04:57.238Z,1015.25
2018-06-22T06:05:22.730Z,1015.18
2018-06-22T06:05:48.205Z,1015.22
2018-06-22T06:06:13.673Z,1015.26
2018-06-22T06:06:39.161Z,1015.26
2018-06-22T06:07:04.628Z,1015.24
2018-06-22T06:07:30.138Z,1015.2
2018-06-22T06:07:55.629Z,1015.26
2018-06-22T06:08:21.149Z,1015.23
2018-06-22T06:08:46.591Z,1015.31
2018-06-22T06:09:12.057Z,1015.27
2018-06-22T06:09:37.549Z,1015.25
2018-06-22T06:10:03.118Z,1015.36
2018-06-22T06:10:28.541Z,1015.2
2018-06-22T06:10:54.044Z,1015.27
2018-06-22T06:11:19.581Z,1015.26
2018-06-22T06:11:45.076Z,1015.35
2018-06-22T06:12:10.580Z,1015.35
2018-06-22T06:12:36.168Z,1015.38
2018-06-22T06:13:01.590Z,1015.34
2018-06-22T06:13:27.070Z,1015.37
2018-06-22T06:13:52.556Z,1015.32
2018-06-22T06:14:18.065Z,1015.34
2018-06-22T06:14:43.580Z,1015.37
2018-06-22T06:15:09.059Z,1015.37
2018-06-22T06:15:34.566Z,1015.3
2018-06-22T06:16:00.074Z,1015.36
2018-06-22T06:16:25.573Z,1015.37
2018-06-22T06:16:51.060Z,1015.35
2018-06-22T06:17:16.521Z,1015.38
2018-06-22T06:17:42.049Z,1015.41
2018-06-22T06:18:07.553Z,1015.44
2018-06-22T06:18:33.012Z,1015.46
2018-06-22T06:18:58.509Z,1015.41
2018-06-22T06:19:23.995Z,1015.44
2018-06-22T06:19:49.522Z,1015.38
2018-06-22T06:20:15.014Z,1015.39
2018-06-22T06:20:40.536Z,1015.38
2018-06-22T06:21:06.017Z,1015.47
2018-06-22T06:21:31.485Z,1015.43
2018-06-22T06:21:56.988Z,1015.43
2018-06-22T06:22:22.475Z,1015.48
2018-06-22T06:22:47.970Z,1015.49
2018-06-22T06:23:13.482Z,1015.5
2018-06-22T06:23:38.954Z,1015.43
2018-06-22T06:24:04.428Z,1015.5
2018-06-22T06:24:29.923Z,1015.47
2018-06-22T06:24:55.421Z,1015.49
2018-06-22T06:25:20.929Z,1015.48
2018-06-22T06:25:46.424Z,1015.51
2018-06-22T06:26:11.918Z,1015.51
2018-06-22T06:26:37.397Z,1015.5
2018-06-22T06:27:02.930Z,1015.45
2018-06-22T06:27:28.437Z,1015.48
2018-06-22T06:27:53.958Z,1015.53
2018-06-22T06:28:19.452Z,1015.52
2018-06-22T06:28:44.944Z,1015.48
2018-06-22T06:29:10.428Z,1015.48
2018-06-22T06:29:35.907Z,1015.48
2018-06-22T06:30:01.444Z,1015.51
2018-06-22T06:30:26.956Z,1015.55
2018-06-22T06:30:52.448Z,1015.55
2018-06-22T06:31:17.925Z,1015.51
2018-06-22T06:31:43.413Z,1015.52
2018-06-22T06:32:08.887Z,1015.5
2018-06-22T06:32:34.387Z,1015.52
2018-06-22T06:32:59.873Z,1015.55
2018-06-22T06:33:25.368Z,1015.56
2018-06-22T06:33:50.835Z,1015.56
2018-06-22T06:34:16.409Z,1015.53
2018-06-22T06:34:41.864Z,1015.54
2018-06-22T06:35:07.349Z,1015.55
2018-06-22T06:35:32.820Z,1015.51
2018-06-22T06:35:58.318Z,1015.49
2018-06-22T06:36:23.812Z,1015.53
2018-06-22T06:36:49.304Z,1015.57
2018-06-22T06:37:14.829Z,1015.48
2018-06-22T06:37:40.314Z,1015.49
2018-06-22T06:38:05.819Z,1015.51
2018-06-22T06:38:31.309Z,1015.54
2018-06-22T06:38:56.808Z,1015.56
2018-06-22T06:39:22.291Z,1015.55
2018-06-22T06:39:47.792Z,1015.57
2018-06-22T06:40:13.308Z,1015.54
2018-06-22T06:40:38.802Z,1015.54
2018-06-22T06:41:04.289Z,1015.58
2018-06-22T06:41:29.785Z,1015.6
2018-06-22T06:41:55.301Z,1015.65
2018-06-22T06:42:20.765Z,1015.58
2018-06-22T06:42:46.234Z,1015.59
2018-06-22T06:43:11.759Z,1015.61
2018-06-22T06:43:37.231Z,1015.59
2018-06-22T06:44:02.721Z,1015.68
2018-06-22T06:44:28.214Z,1015.62
2018-06-22T06:44:53.717Z,1015.62
2018-06-22T06:45:19.217Z,1015.66
2018-06-22T06:45:44.704Z,1015.7
2018-06-22T06:46:10.233Z,1015.63
2018-06-22T06:46:35.749Z,1015.7
2018-06-22T06:47:01.228Z,1015.67
2018-06-22T06:47:26.752Z,1015.62
2018-06-22T06:47:52.256Z,1015.69
2018-06-22T06:48:17.772Z,1015.68
2018-06-22T06:48:43.264Z,1015.71
2018-06-22T06:49:08.763Z,1015.67
2018-06-22T06:49:34.299Z,1015.68
2018-06-22T06:49:59.730Z,1015.7
2018-06-22T06:50:25.238Z,1015.72
2018-06-22T06:50:50.770Z,1015.7
2018-06-22T06:51:16.254Z,1015.73
2018-06-22T06:51:41.759Z,1015.73
2018-06-22T06:52:07.283Z,1015.7
2018-06-22T06:52:32.785Z,1015.68
2018-06-22T06:52:58.289Z,1015.77
2018-06-22T06:53:23.804Z,1015.72
2018-06-22T06:53:49.282Z,1015.75
2018-06-22T06:54:14.777Z,1015.71
2018-06-22T06:54:40.282Z,1015.75
2018-06-22T06:55:05.743Z,1015.7
2018-06-22T06:55:31.239Z,1015.74
2018-06-22T06:55:56.714Z,1015.72
2018-06-22T06:56:22.231Z,1015.77
2018-06-22T06:56:47.802Z,1015.8
2018-06-22T06:57:13.192Z,1015.7
2018-06-22T06:57:38.673Z,1015.76
2018-06-22T06:58:04.130Z,1015.83
2018-06-22T06:58:29.631Z,1015.77
2018-06-22T06:58:55.082Z,1015.74
2018-06-22T06:59:20.576Z,1015.69
2018-06-22T06:59:46.071Z,1015.73
2018-06-22T07:00:11.541Z,1015.71
2018-06-22T07:00:37.075Z,1015.7
2018-06-22T07:01:02.574Z,1015.73
2018-06-22T07:01:28.077Z,1015.76
2018-06-22T07:01:53.639Z,1015.74
2018-06-22T07:02:19.148Z,1015.76
2018-06-22T07:02:44.624Z,1015.78
2018-06-22T07:03:10.103Z,1015.78
2018-06-22T07:03:35.602Z,1015.75
2018-06-22T07:04:01.144Z,1015.82
2018-06-22T07:04:26.575Z,1015.81
2018-06-22T07:04:52.083Z,1015.79
2018-06-22T07:05:17.585Z,1015.77
2018-06-22T07:05:43.070Z,1015.79
2018-06-22T07:06:46.709Z,1015.85
2018-06-22T07:07:12.215Z,1015.8
2018-06-22T07:07:37.705Z,1015.81
2018-06-22T07:08:03.177Z,1015.77
2018-06-22T07:08:28.711Z,1015.79
2018-06-22T07:08:54.134Z,1015.79
2018-06-22T07:09:19.662Z,1015.76
2018-06-22T07:09:45.127Z,1015.83
2018-06-22T07:10:10.669Z,1015.8
2018-06-22T07:10:36.108Z,1015.85
2018-06-22T07:11:39.718Z,1015.86
2018-06-22T07:12:05.230Z,1015.82
2018-06-22T07:12:30.732Z,1015.86
2018-06-22T07:12:56.239Z,1015.85
2018-06-22T07:13:21.746Z,1015.84
2018-06-22T07:13:47.338Z,1015.83
2018-06-22T07:14:12.743Z,1015.79
2018-06-22T07:14:38.256Z,1015.83
2018-06-22T07:15:03.818Z,1015.76
2018-06-22T07:15:29.281Z,1015.79
2018-06-22T07:15:54.771Z,1015.76
2018-06-22T07:16:20.275Z,1015.83
2018-06-22T07:16:45.837Z,1015.83
2018-06-22T07:17:11.341Z,1015.73
2018-06-22T07:17:36.828Z,1015.85
2018-06-22T07:18:02.314Z,1015.82
2018-06-22T07:18:27.810Z,1015.83
2018-06-22T07:18:53.326Z,1015.91
2018-06-22T07:19:18.834Z,1015.84
2018-06-22T07:19:44.340Z,1015.83
2018-06-22T07:20:09.813Z,1015.88
2018-06-22T07:20:35.310Z,1015.86
2018-06-22T07:21:00.835Z,1015.79
2018-06-22T07:21:26.310Z,1015.88
2018-06-22T07:21:51.886Z,1015.88
2018-06-22T07:22:17.362Z,1015.82
2018-06-22T07:22:42.826Z,1015.88
2018-06-22T07:23:08.325Z,1015.83
2018-06-22T07:23:33.825Z,1015.9
2018-06-22T07:23:59.344Z,1015.84
2018-06-22T07:24:24.850Z,1015.8
2018-06-22T07:24:50.341Z,1015.85
2018-06-22T07:25:15.822Z,1015.85
2018-06-22T07:25:41.381Z,1015.88
2018-06-22T07:26:06.873Z,1015.92
2018-06-22T07:26:32.378Z,1015.88
2018-06-22T07:26:57.881Z,1015.88
2018-06-22T07:27:23.437Z,1015.8
2018-06-22T07:27:48.914Z,1015.88
2018-06-22T07:28:14.444Z,1015.88
2018-06-22T07:28:39.961Z,1015.91
2018-06-22T07:29:05.433Z,1015.91
2018-06-22T07:29:30.955Z,1015.92
2018-06-22T07:29:56.460Z,1015.91
2018-06-22T07:30:21.940Z,1015.89
2018-06-22T07:30:47.437Z,1015.9
2018-06-22T07:31:12.960Z,1015.87
2018-06-22T07:31:38.486Z,1015.96
2018-06-22T07:32:03.956Z,1015.95
2018-06-22T07:32:29.505Z,1015.94
2018-06-22T07:32:55.010Z,1015.94
2018-06-22T07:33:20.513Z,1015.93
2018-06-22T07:33:46.020Z,1015.89
2018-06-22T07:34:11.543Z,1015.88
2018-06-22T07:34:37.043Z,1015.96
2018-06-22T07:35:02.565Z,1015.87
2018-06-22T07:35:28.063Z,1015.9
2018-06-22T07:35:53.636Z,1015.95
2018-06-22T07:36:19.049Z,1015.89
2018-06-22T07:36:44.550Z,1015.9
2018-06-22T07:37:10.058Z,1015.94
2018-06-22T07:37:35.563Z,1015.92
2018-06-22T07:38:01.061Z,1015.91
2018-06-22T07:38:26.559Z,1015.96
2018-06-22T07:38:52.032Z,1015.96
2018-06-22T07:39:17.520Z,1015.91
2018-06-22T07:39:43.058Z,1015.91
2018-06-22T07:40:08.556Z,1015.97
2018-06-22T07:40:34.059Z,1015.86
2018-06-22T07:40:59.721Z,1015.89
2018-06-22T07:41:25.104Z,1015.96
2018-06-22T07:41:50.617Z,1015.94
2018-06-22T07:42:16.090Z,1015.95
2018-06-22T07:42:41.575Z,1015.98
2018-06-22T07:43:07.059Z,1015.96
2018-06-22T07:43:32.581Z,1015.93
2018-06-22T07:43:58.109Z,1015.95
2018-06-22T07:44:23.598Z,1015.94
2018-06-22T07:44:49.100Z,1015.91
2018-06-22T07:45:14.592Z,1015.98
2018-06-22T07:45:40.092Z,1015.94
2018-06-22T07:46:05.583Z,1015.98
2018-06-22T07:46:31.081Z,1015.96
2018-06-22T07:46:56.599Z,1015.87
2018-06-22T07:47:22.065Z,1015.93
2018-06-22T07:47:47.565Z,1015.99
2018-06-22T07:48:13.061Z,1015.98
2018-06-22T07:48:38.567Z,1015.97
2018-06-22T07:49:04.074Z,1015.95
2018-06-22T07:49:29.578Z,1015.98
2018-06-22T07:49:55.152Z,1015.95
2018-06-22T07:50:20.590Z,1015.94
2018-06-22T07:50:46.079Z,1015.96
2018-06-22T07:51:11.553Z,1015.95
2018-06-22T07:51:37.043Z,1016.01
2018-06-22T07:52:02.558Z,1015.96
2018-06-22T07:52:28.030Z,1015.93
2018-06-22T07:52:53.535Z,1015.9
2018-06-22T07:53:19.045Z,1015.91
2018-06-22T07:53:44.551Z,1015.89
2018-06-22T07:54:10.058Z,1015.98
2018-06-22T07:54:35.538Z,1015.91
2018-06-22T07:55:01.092Z,1015.86
2018-06-22T07:55:26.531Z,1015.82
2018-06-22T07:55:52.041Z,1015.87
2018-06-22T07:56:17.535Z,1015.9
2018-06-22T07:56:43.198Z,1015.84
2018-06-22T07:57:08.731Z,1015.87
2018-06-22T07:57:34.200Z,1015.92
2018-06-22T07:57:59.771Z,1015.97
2018-06-22T07:58:25.213Z,1015.94
2018-06-22T07:58:50.691Z,1016
2018-06-22T07:59:16.205Z,1016.02
2018-06-22T07:59:41.720Z,1015.99
2018-06-22T08:00:07.216Z,1015.99
2018-06-22T08:00:32.716Z,1016
2018-06-22T08:00:58.215Z,1015.97
2018-06-22T08:01:23.717Z,1016.03
2018-06-22T08:01:49.233Z,1015.99
2018-06-22T08:02:14.738Z,1016.03
2018-06-22T08:02:40.232Z,1015.92
2018-06-22T08:03:05.725Z,1016.03
2018-06-22T08:03:31.210Z,1016.02
2018-06-22T08:03:56.697Z,1016.06
2018-06-22T08:04:22.200Z,1016.04
2018-06-22T08:04:47.701Z,1015.97
2018-06-22T08:05:13.156Z,1016.01
2018-06-22T08:05:38.684Z,1015.99
2018-06-22T08:06:04.191Z,1015.92
2018-06-22T08:06:29.689Z,1015.99
2018-06-22T08:06:55.162Z,1015.93
2018-06-22T08:07:20.685Z,1015.94
2018-06-22T08:07:46.166Z,1015.97
2018-06-22T08:08:11.636Z,1015.89
2018-06-22T08:08:37.121Z,1015.94
2018-06-22T08:09:02.618Z,1015.99
2018-06-22T08:09:28.125Z,1015.98
2018-06-22T08:09:53.618Z,1015.92
2018-06-22T08:10:19.173Z,1016.02
2018-06-22T08:10:44.710Z,1016.02
2018-06-22T08:11:10.146Z,1016
2018-06-22T08:11:35.632Z,1015.96
2018-06-22T08:12:01.161Z,1015.94
2018-06-22T08:12:26.671Z,1015.9
2018-06-22T08:12:52.138Z,1015.96
2018-06-22T08:13:17.624Z,1015.94
2018-06-22T08:13:43.112Z,1015.99
2018-06-22T08:14:08.611Z,1015.83
2018-06-22T08:14:34.112Z,1016.04
2018-06-22T08:14:59.593Z,1016.15
2018-06-22T08:15:25.092Z,1016.02
2018-06-22T08:15:50.598Z,1016.05
2018-06-22T08:16:16.095Z,1016.02
2018-06-22T08:16:41.579Z,1016.03
2018-06-22T08:17:07.078Z,1016.03
2018-06-22T08:17:32.625Z,1016.06
2018-06-22T08:17:58.064Z,1016.09
2018-06-22T08:18:23.547Z,1016.1
2018-06-22T08:18:49.073Z,1016.1
2018-06-22T08:19:14.569Z,1016.11
2018-06-22T08:19:40.135Z,1016.2
2018-06-22T08:20:05.602Z,1016.1
2018-06-22T08:20:31.115Z,1016.13
2018-06-22T08:20:56.650Z,1016.06
2018-06-22T08:21:22.168Z,1016.07
2018-06-22T08:21:47.637Z,1016.07
2018-06-22T08:22:13.250Z,1016.15
2018-06-22T08:22:38.739Z,1016.15
2018-06-22T08:23:04.222Z,1016.09
2018-06-22T08:23:29.763Z,1016.18
2018-06-22T08:23:55.220Z,1016.16
2018-06-22T08:24:20.706Z,1016.11
2018-06-22T08:24:46.219Z,1016.06
2018-06-22T08:25:11.712Z,1016.07
2018-06-22T08:25:37.211Z,1016.07
2018-06-22T08:26:02.700Z,1016.12
2018-06-22T08:26:28.221Z,1016.1
2018-06-22T08:27:46.690Z,1016.09
2018-06-22T08:28:12.188Z,1016.07
2018-06-22T08:28:37.681Z,1016.08
2018-06-22T08:29:03.184Z,1016.1
2018-06-22T08:29:28.688Z,1016.11
2018-06-22T08:29:54.204Z,1016.13
2018-06-22T08:30:19.714Z,1016.12
2018-06-22T08:30:45.216Z,1016.09
2018-06-22T08:31:10.726Z,1016.19
2018-06-22T08:31:36.214Z,1016.15
2018-06-22T08:32:01.706Z,1016.13
2018-06-22T08:32:27.213Z,1016.19
2018-06-22T08:32:52.701Z,1016.16
2018-06-22T08:33:18.161Z,1016.18
2018-06-22T08:33:43.653Z,1016.25
2018-06-22T08:34:09.146Z,1016.3
2018-06-22T08:34:34.624Z,1016.24
2018-06-22T08:35:00.181Z,1016.21
2018-06-22T08:35:25.626Z,1016.27
2018-06-22T08:35:51.111Z,1016.25
2018-06-22T08:36:16.624Z,1016.22
2018-06-22T08:36:42.107Z,1016.24
2018-06-22T08:37:07.626Z,1016.24
2018-06-22T08:37:33.167Z,1016.26
2018-06-22T08:38:51.618Z,1016.27
2018-06-22T08:39:17.132Z,1016.21
2018-06-22T08:39:42.623Z,1016.22
2018-06-22T08:40:08.121Z,1016.25
2018-06-22T08:40:33.588Z,1016.24
2018-06-22T08:40:59.081Z,1016.23
2018-06-22T08:41:24.640Z,1016.25
2018-06-22T08:41:50.120Z,1016.19
2018-06-22T08:42:15.685Z,1016.22
2018-06-22T08:42:41.081Z,1016.22
2018-06-22T08:43:06.576Z,1016.24
2018-06-22T08:43:32.071Z,1016.28
2018-06-22T08:43:57.576Z,1016.31
2018-06-22T08:44:23.082Z,1016.34
2018-06-22T08:44:48.594Z,1016.4
2018-06-22T08:45:14.100Z,1016.34
2018-06-22T08:45:39.603Z,1016.39
2018-06-22T08:46:05.114Z,1016.4
2018-06-22T08:46:30.661Z,1016.37
2018-06-22T08:46:56.123Z,1016.41
2018-06-22T08:47:21.612Z,1016.32
2018-06-22T08:47:47.114Z,1016.35
2018-06-22T08:48:12.625Z,1016.26
2018-06-22T08:48:38.117Z,1016.22
2018-06-22T08:49:03.622Z,1016.23
2018-06-22T08:49:29.085Z,1016.32
2018-06-22T08:49:54.594Z,1016.25
2018-06-22T08:50:20.093Z,1016.3
2018-06-22T08:50:45.587Z,1016.28
2018-06-22T08:51:11.097Z,1016.33
2018-06-22T08:51:36.626Z,1016.33
2018-06-22T08:52:02.120Z,1016.32
2018-06-22T08:52:27.613Z,1016.35
2018-06-22T08:52:53.157Z,1016.33
2018-06-22T08:53:18.637Z,1016.35
2018-06-22T08:53:44.202Z,1016.33
2018-06-22T08:54:09.644Z,1016.35
2018-06-22T08:54:35.146Z,1016.39
2018-06-22T08:55:00.647Z,1016.35
2018-06-22T08:55:26.159Z,1016.39
2018-06-22T08:55:51.635Z,1016.34
2018-06-22T08:56:17.140Z,1016.32
2018-06-22T08:56:42.632Z,1016.32
2018-06-22T08:57:08.169Z,1016.38
2018-06-22T08:57:33.648Z,1016.38
2018-06-22T08:57:59.134Z,1016.34
2018-06-22T08:58:24.624Z,1016.39
2018-06-22T08:59:23.176Z,1016.38
2018-06-22T08:59:48.720Z,1016.37
2018-06-22T09:00:14.228Z,1016.43
2018-06-22T09:00:39.701Z,1016.33
2018-06-22T09:01:05.198Z,1016.28
2018-06-22T09:01:30.699Z,1016.37
2018-06-22T09:01:56.206Z,1016.39
2018-06-22T09:02:21.697Z,1016.4
2018-06-22T09:02:47.189Z,1016.36
2018-06-22T09:03:12.705Z,1016.4
2018-06-22T09:03:38.209Z,1016.38
2018-06-22T09:04:03.729Z,1016.41
2018-06-22T09:04:29.229Z,1016.42
2018-06-22T09:04:54.697Z,1016.39
2018-06-22T09:05:20.207Z,1016.43
2018-06-22T09:05:45.738Z,1016.39
2018-06-22T09:06:11.242Z,1016.38
2018-06-22T09:06:36.758Z,1016.44
2018-06-22T09:07:02.235Z,1016.37
2018-06-22T09:07:27.748Z,1016.46
2018-06-22T09:07:53.275Z,1016.4
2018-06-22T09:08:18.837Z,1016.44
2018-06-22T09:08:44.309Z,1016.29
2018-06-22T09:09:09.759Z,1016.35
2018-06-22T09:09:35.255Z,1016.4
2018-06-22T09:10:00.755Z,1016.43
2018-06-22T09:10:26.256Z,1016.4
2018-06-22T09:10:51.738Z,1016.43
2018-06-22T09:11:17.286Z,1016.44
2018-06-22T09:11:42.774Z,1016.4
2018-06-22T09:12:08.282Z,1016.39
2018-06-22T09:12:33.800Z,1016.44
2018-06-22T09:12:59.291Z,1016.41
2018-06-22T09:13:24.806Z,1016.42
2018-06-22T09:13:50.279Z,1016.43
2018-06-22T09:14:15.854Z,1016.47
2018-06-22T09:14:41.359Z,1016.39
2018-06-22T09:15:06.869Z,1016.43
2018-06-22T09:15:32.360Z,1016.43
2018-06-22T09:15:57.850Z,1016.44
2018-06-22T09:16:23.374Z,1016.36
2018-06-22T09:16:48.862Z,1016.43
2018-06-22T09:17:14.390Z,1016.45
2018-06-22T09:17:39.903Z,1016.42
2018-06-22T09:18:05.409Z,1016.46
2018-06-22T09:18:30.929Z,1016.39
2018-06-22T09:18:56.404Z,1016.46
2018-06-22T09:19:21.905Z,1016.44
2018-06-22T09:19:47.477Z,1016.45
2018-06-22T09:20:12.970Z,1016.44
2018-06-22T09:20:38.447Z,1016.43
2018-06-22T09:21:03.936Z,1016.48
2018-06-22T09:21:29.438Z,1016.48
2018-06-22T09:21:54.937Z,1016.46
2018-06-22T09:22:20.455Z,1016.47
2018-06-22T09:22:46.001Z,1016.49
2018-06-22T09:23:11.503Z,1016.58
2018-06-22T09:23:36.986Z,1016.61
2018-06-22T09:24:02.555Z,1016.58
2018-06-22T09:24:28.017Z,1016.61
2018-06-22T09:24:53.531Z,1016.54
2018-06-22T09:25:19.003Z,1016.52
2018-06-22T09:25:44.475Z,1016.57
2018-06-22T09:26:09.981Z,1016.6
2018-06-22T09:26:35.470Z,1016.61
2018-06-22T09:27:00.974Z,1016.62
2018-06-22T09:27:26.449Z,1016.61